createdAt,value
2023-02-17T00:01:00.272Z,60.52
2023-02-17T00:03:27.995Z,61.21
2023-02-17T00:05:54.931Z,60.36
2023-02-17T00:08:21.946Z,61.81
2023-02-17T00:10:58.790Z,61.89
2023-02-17T00:13:26.437Z,63.42
2023-02-17T00:15:53.566Z,63.42
2023-02-17T00:18:20.609Z,63.05
2023-02-17T00:20:47.495Z,62.87
2023-02-17T00:23:14.407Z,62.37
2023-02-17T00:25:41.372Z,60.70
2023-02-17T00:28:08.317Z,60.63
2023-02-17T00:30:35.296Z,62.86
2023-02-17T00:33:02.169Z,62.16
2023-02-17T00:35:29.038Z,62.56
2023-02-17T00:37:55.916Z,62.24
2023-02-17T00:40:22.963Z,62.54
2023-02-17T00:42:49.938Z,63.55
2023-02-17T00:45:18.250Z,65.08
2023-02-17T00:47:45.134Z,63.83
2023-02-17T00:50:11.997Z,63.21
2023-02-17T00:52:38.888Z,63.17
2023-02-17T00:55:07.720Z,63.72
2023-02-17T00:57:36.314Z,63.16
2023-02-17T01:00:05.153Z,64.42
2023-02-17T01:02:33.910Z,63.63
2023-02-17T01:05:00.798Z,62.86
2023-02-17T01:07:27.768Z,62.60
2023-02-17T01:09:54.689Z,62.04
2023-02-17T01:12:22.164Z,63.33
2023-02-17T01:14:49.721Z,62.28
2023-02-17T01:17:16.606Z,61.95
2023-02-17T01:19:43.526Z,61.33
2023-02-17T01:22:10.489Z,61.40
2023-02-17T01:24:39.406Z,63.19
2023-02-17T01:27:06.451Z,62.42
2023-02-17T01:29:33.395Z,63.15
2023-02-17T01:32:00.410Z,61.74
2023-02-17T01:34:28.002Z,61.07
2023-02-17T01:36:54.915Z,61.44
2023-02-17T01:39:21.862Z,61.01
2023-02-17T01:41:48.767Z,61.37
2023-02-17T01:44:22.019Z,60.74
2023-02-17T01:46:54.566Z,60.83
2023-02-17T01:49:30.692Z,60.46
2023-02-17T01:52:11.336Z,59.98
2023-02-17T01:54:46.463Z,59.16
2023-02-17T01:57:17.272Z,58.97
2023-02-17T01:59:45.501Z,59.10
2023-02-17T02:02:13.006Z,59.52
2023-02-17T02:04:45.034Z,59.29
2023-02-17T02:07:18.892Z,57.98
2023-02-17T02:09:56.201Z,58.54
2023-02-17T02:12:31.900Z,59.19
2023-02-17T02:15:03.229Z,58.39
2023-02-17T02:17:37.092Z,58.51
2023-02-17T02:20:23.001Z,57.44
2023-02-17T02:23:14.553Z,59.64
2023-02-17T02:26:08.823Z,60.51
2023-02-17T02:28:58.906Z,60.49
2023-02-17T02:31:45.203Z,61.39
2023-02-17T02:34:29.781Z,61.84
2023-02-17T02:37:07.375Z,64.01
2023-02-17T02:39:39.623Z,64.58
2023-02-17T02:42:11.300Z,65.01
2023-02-17T02:44:38.319Z,64.70
2023-02-17T02:47:07.820Z,65.72
2023-02-17T02:49:36.830Z,65.76
2023-02-17T02:52:10.296Z,66.13
2023-02-17T02:54:52.850Z,66.22
2023-02-17T02:58:03.757Z,65.91
2023-02-17T03:00:45.124Z,64.50
2023-02-17T03:03:41.285Z,63.41
2023-02-17T03:06:43.130Z,61.43
2023-02-17T03:09:30.993Z,62.30
2023-02-17T03:11:58.911Z,62.40
2023-02-17T03:14:27.532Z,62.85
2023-02-17T03:16:55.519Z,64.30
2023-02-17T03:19:26.085Z,64.79
2023-02-17T03:22:07.664Z,64.80
2023-02-17T03:24:36.043Z,65.16
2023-02-17T03:27:03.333Z,64.60
2023-02-17T03:29:30.320Z,64.91
2023-02-17T03:31:57.452Z,64.40
2023-02-17T03:34:24.573Z,65.25
2023-02-17T03:36:51.598Z,63.86
2023-02-17T03:39:18.460Z,63.28
2023-02-17T03:41:46.052Z,63.04
2023-02-17T03:44:12.933Z,61.82
2023-02-17T03:46:41.137Z,61.20
2023-02-17T03:49:08.117Z,60.62
2023-02-17T03:51:35.154Z,60.07
2023-02-17T03:54:02.162Z,59.70
2023-02-17T03:56:29.290Z,58.73
2023-02-17T03:58:56.175Z,58.50
2023-02-17T04:01:23.901Z,57.89
2023-02-17T04:03:50.962Z,57.95
2023-02-17T04:06:18.315Z,57.80
2023-02-17T04:08:45.245Z,58.22
2023-02-17T04:11:12.181Z,57.89
2023-02-17T04:13:40.145Z,57.24
2023-02-17T04:16:09.401Z,57.35
2023-02-17T04:18:37.372Z,58.44
2023-02-17T04:21:05.029Z,57.67
2023-02-17T04:23:32.035Z,56.90
2023-02-17T04:25:58.945Z,57.02
2023-02-17T04:28:26.474Z,56.17
2023-02-17T04:30:53.611Z,56.50
2023-02-17T04:33:20.650Z,55.66
2023-02-17T04:35:47.795Z,56.20
2023-02-17T04:38:14.886Z,56.49
2023-02-17T04:40:42.881Z,56.26
2023-02-17T04:43:10.041Z,55.02
2023-02-17T04:45:38.008Z,54.86
2023-02-17T04:48:04.973Z,54.14
2023-02-17T04:50:31.820Z,54.40
2023-02-17T04:52:58.749Z,54.50
2023-02-17T04:55:25.690Z,54.40
2023-02-17T04:57:52.628Z,54.26
2023-02-17T05:00:19.948Z,54.61
2023-02-17T05:02:46.845Z,55.87
2023-02-17T05:05:18.875Z,54.91
2023-02-17T05:07:46.645Z,54.55
2023-02-17T05:10:15.975Z,54.99
2023-02-17T05:12:43.024Z,55.59
2023-02-17T05:15:10.642Z,56.87
2023-02-17T05:17:37.568Z,55.76
2023-02-17T05:20:06.198Z,55.80
2023-02-17T05:22:33.491Z,56.88
2023-02-17T05:25:00.356Z,58.68
2023-02-17T05:27:27.226Z,61.03
2023-02-17T05:29:54.300Z,62.19
2023-02-17T05:32:22.876Z,63.03
2023-02-17T05:34:49.916Z,62.76
2023-02-17T05:37:16.858Z,62.49
2023-02-17T05:39:43.875Z,64.05
2023-02-17T05:42:10.743Z,65.53
2023-02-17T05:44:37.634Z,65.78
2023-02-17T05:47:04.944Z,65.44
2023-02-17T05:49:31.898Z,64.12
2023-02-17T05:51:58.830Z,62.79
2023-02-17T05:54:25.773Z,61.54
2023-02-17T05:56:52.692Z,62.28
2023-02-17T05:59:19.872Z,62.44
2023-02-17T06:01:46.802Z,60.51
2023-02-17T06:04:13.654Z,60.49
2023-02-17T06:06:40.600Z,58.77
2023-02-17T06:09:07.553Z,58.38
2023-02-17T06:11:34.477Z,56.88
2023-02-17T06:14:01.357Z,56.38
2023-02-17T06:16:28.425Z,55.29
2023-02-17T06:18:55.350Z,54.53
2023-02-17T06:21:22.256Z,53.05
2023-02-17T06:23:49.105Z,53.76
2023-02-17T06:26:16.150Z,53.99
2023-02-17T06:28:43.019Z,53.65
2023-02-17T06:31:10.289Z,54.32
2023-02-17T06:33:37.250Z,53.44
2023-02-17T06:36:04.833Z,54.11
2023-02-17T06:38:32.001Z,53.25
2023-02-17T06:40:58.882Z,53.44
2023-02-17T06:43:25.823Z,53.49
2023-02-17T06:45:52.828Z,52.94
2023-02-17T06:48:19.785Z,52.64
2023-02-17T06:50:48.723Z,52.77
2023-02-17T06:53:15.626Z,52.51
2023-02-17T06:55:44.611Z,51.57
2023-02-17T06:58:11.684Z,51.51
2023-02-17T07:00:38.931Z,51.45
2023-02-17T07:03:05.877Z,51.32
2023-02-17T07:05:36.083Z,51.69
2023-02-17T07:08:03.815Z,51.37
2023-02-17T07:10:30.870Z,51.54
2023-02-17T07:12:57.790Z,50.70
2023-02-17T07:15:25.003Z,50.88
2023-02-17T07:17:51.939Z,51.06
2023-02-17T07:20:18.950Z,51.66
2023-02-17T07:22:45.921Z,51.79
2023-02-17T07:25:12.792Z,51.91
2023-02-17T07:27:39.896Z,51.41
2023-02-17T07:30:07.497Z,51.10
2023-02-17T07:32:35.639Z,51.93
2023-02-17T07:35:02.734Z,52.90
2023-02-17T07:37:29.770Z,52.65
2023-02-17T07:39:57.363Z,53.01
2023-02-17T07:42:24.354Z,54.00
2023-02-17T07:44:51.880Z,52.41
2023-02-17T07:47:19.181Z,52.27
2023-02-17T07:49:46.137Z,54.29
2023-02-17T07:52:13.094Z,53.12
2023-02-17T07:54:40.031Z,54.17
2023-02-17T07:57:06.888Z,53.32
2023-02-17T07:59:33.741Z,53.56
2023-02-17T08:02:00.680Z,54.15
2023-02-17T08:04:27.830Z,54.23
2023-02-17T08:06:54.820Z,54.78
2023-02-17T08:09:40.051Z,53.29
2023-02-17T08:12:34.073Z,53.38
2023-02-17T08:15:02.002Z,54.38
2023-02-17T08:17:29.591Z,54.76
2023-02-17T08:19:56.646Z,54.89
2023-02-17T08:22:23.675Z,55.75
2023-02-17T08:24:50.893Z,55.23
2023-02-17T08:27:19.760Z,55.29
2023-02-17T08:29:46.928Z,55.59
2023-02-17T08:32:16.318Z,55.40
2023-02-17T08:34:43.440Z,55.97
2023-02-17T08:37:11.068Z,55.85
2023-02-17T08:39:38.504Z,56.57
2023-02-17T08:42:06.094Z,55.92
2023-02-17T08:44:36.133Z,55.34
2023-02-17T08:47:05.213Z,55.68
2023-02-17T08:49:33.116Z,55.81
2023-02-17T08:52:00.256Z,55.33
2023-02-17T08:54:27.323Z,55.12
2023-02-17T08:56:54.322Z,55.32
2023-02-17T08:59:21.414Z,54.66
2023-02-17T09:01:48.377Z,54.84
2023-02-17T09:04:16.371Z,54.22
2023-02-17T09:06:46.419Z,52.91
2023-02-17T09:09:15.226Z,54.76
2023-02-17T09:11:42.553Z,53.95
2023-02-17T09:14:10.090Z,54.40
2023-02-17T09:16:40.333Z,53.95
2023-02-17T09:19:08.262Z,52.83
2023-02-17T09:21:35.151Z,53.57
2023-02-17T09:24:02.026Z,53.41
2023-02-17T09:26:29.058Z,53.78
2023-02-17T09:28:57.672Z,53.78
2023-02-17T09:31:26.666Z,53.62
2023-02-17T09:33:54.675Z,54.04
2023-02-17T09:36:24.635Z,53.46
2023-02-17T09:38:52.685Z,54.38
2023-02-17T09:41:38.175Z,54.55
2023-02-17T09:44:07.816Z,54.33
2023-02-17T10:18:04.460Z,53.25
2023-02-17T10:20:52.422Z,51.84
2023-02-17T10:23:22.803Z,51.28
2023-02-17T10:26:08.968Z,51.43
2023-02-17T10:28:54.584Z,50.73
2023-02-17T10:31:47.678Z,50.79
2023-02-17T10:34:23.811Z,51.04
2023-02-17T10:37:05.066Z,50.12
2023-02-17T10:39:41.989Z,49.85
2023-02-17T10:42:40.698Z,50.10
2023-02-17T10:45:26.218Z,49.25
2023-02-17T10:47:59.491Z,50.42
2023-02-17T10:50:26.772Z,49.57
2023-02-17T10:52:54.129Z,48.81
2023-02-17T10:55:33.990Z,47.64
2023-02-17T10:58:47.311Z,48.00
2023-02-17T11:01:14.484Z,47.66
2023-02-17T11:03:42.099Z,48.32
2023-02-17T11:06:22.425Z,47.67
2023-02-17T11:08:50.817Z,47.29
2023-02-17T11:11:19.776Z,46.90
2023-02-17T11:14:19.716Z,47.08
2023-02-17T11:16:53.144Z,47.04
2023-02-17T11:19:29.979Z,47.34
2023-02-17T11:21:59.156Z,47.08
2023-02-17T11:24:27.480Z,46.60
2023-02-17T11:27:08.607Z,45.77
2023-02-17T11:29:35.720Z,46.66
2023-02-17T11:32:07.520Z,46.28
2023-02-17T11:34:39.892Z,46.59
2023-02-17T11:37:09.835Z,46.88
2023-02-17T11:39:45.328Z,46.50
2023-02-17T11:42:23.697Z,45.99
2023-02-17T11:44:51.014Z,46.87
2023-02-17T11:47:33.306Z,45.25
2023-02-17T11:50:31.711Z,45.11
2023-02-17T11:53:34.665Z,46.05
2023-02-17T11:56:10.114Z,45.58
2023-02-17T11:58:43.885Z,44.47
2023-02-17T12:01:41.479Z,43.64
2023-02-17T12:04:16.981Z,43.59
2023-02-17T12:06:56.140Z,43.45
2023-02-17T12:09:38.162Z,44.20
2023-02-17T12:12:14.085Z,44.31
2023-02-17T12:14:52.939Z,42.18
2023-02-17T12:17:45.990Z,43.19
2023-02-17T12:20:39.905Z,43.77
2023-02-17T12:23:24.710Z,43.68
2023-02-17T12:26:13.294Z,42.82
2023-02-17T12:28:49.239Z,42.35
2023-02-17T12:31:40.377Z,43.22
2023-02-17T12:34:18.702Z,43.88
2023-02-17T12:36:46.601Z,44.62
2023-02-17T12:39:20.617Z,44.10
2023-02-17T12:41:53.988Z,43.34
2023-02-17T12:44:27.098Z,43.29
2023-02-17T12:46:57.832Z,43.53
2023-02-17T12:49:47.546Z,43.75
2023-02-17T12:52:25.248Z,43.90
2023-02-17T12:54:57.361Z,42.37
2023-02-17T12:57:37.679Z,43.07
2023-02-17T13:00:17.872Z,41.80
2023-02-17T13:02:45.065Z,42.36
2023-02-17T13:05:26.384Z,42.58
2023-02-17T13:07:58.409Z,42.09
2023-02-17T13:10:40.161Z,41.97
2023-02-17T13:13:25.078Z,42.36
2023-02-17T13:16:28.611Z,43.31
2023-02-17T13:18:55.855Z,43.55
2023-02-17T13:21:27.550Z,43.58
2023-02-17T13:24:09.077Z,43.52
2023-02-17T13:26:37.766Z,44.58
2023-02-17T13:29:25.871Z,44.63
2023-02-17T13:31:52.912Z,44.94
2023-02-17T13:34:46.623Z,45.08
2023-02-17T13:37:37.250Z,46.10
2023-02-17T13:40:15.702Z,45.98
2023-02-17T13:42:45.373Z,46.22
2023-02-17T13:45:20.694Z,46.11
2023-02-17T13:47:50.715Z,46.45
2023-02-17T13:50:33.061Z,46.29
2023-02-17T13:53:01.596Z,47.06
2023-02-17T13:55:28.526Z,47.84
2023-02-17T13:57:58.309Z,47.68
2023-02-17T14:00:30.831Z,48.20
2023-02-17T14:03:27.108Z,48.22
2023-02-17T14:05:56.832Z,48.81
2023-02-17T14:08:29.514Z,49.01
2023-02-17T14:10:57.673Z,49.14
2023-02-17T14:13:25.289Z,48.84
2023-02-17T14:15:56.133Z,49.17
2023-02-17T14:18:38.512Z,49.21
2023-02-17T14:21:23.740Z,49.43
2023-02-17T14:23:53.811Z,49.40
2023-02-17T14:26:44.698Z,49.59
2023-02-17T14:29:13.618Z,50.11
2023-02-17T14:31:46.449Z,50.11
2023-02-17T14:34:25.723Z,50.06
2023-02-17T14:36:52.856Z,50.54
2023-02-17T14:39:19.951Z,50.66
2023-02-17T14:41:46.965Z,50.66
2023-02-17T14:44:13.806Z,51.27
2023-02-17T14:46:41.042Z,50.55
2023-02-17T14:49:08.084Z,51.07
2023-02-17T14:51:37.543Z,51.22
2023-02-17T14:54:14.184Z,51.42
2023-02-17T14:56:59.978Z,52.37
2023-02-17T14:59:26.889Z,51.63
2023-02-17T15:01:53.882Z,51.98
2023-02-17T15:04:20.954Z,51.97
2023-02-17T15:06:51.040Z,52.87
2023-02-17T15:09:24.252Z,53.06
2023-02-17T15:11:51.837Z,52.84
2023-02-17T15:14:21.045Z,52.83
2023-02-17T15:16:48.946Z,53.38
2023-02-17T15:19:19.658Z,53.72
2023-02-17T15:21:50.031Z,54.33
2023-02-17T15:24:27.281Z,54.91
2023-02-17T15:26:56.448Z,54.59
2023-02-17T15:29:25.150Z,55.49
2023-02-17T15:31:54.579Z,56.09
2023-02-17T15:34:31.028Z,56.74
2023-02-17T15:37:01.469Z,56.71
2023-02-17T15:39:29.084Z,56.51
2023-02-17T15:42:02.524Z,56.03
2023-02-17T15:44:51.310Z,55.50
2023-02-17T15:47:20.765Z,56.25
2023-02-17T15:49:47.775Z,55.87
2023-02-17T15:52:15.643Z,56.60
2023-02-17T15:54:43.393Z,57.63
2023-02-17T15:57:28.495Z,58.36
2023-02-17T15:59:55.635Z,58.92
2023-02-17T16:02:25.216Z,60.10
2023-02-17T16:04:52.189Z,60.49
2023-02-17T16:07:19.194Z,60.67
2023-02-17T16:09:46.258Z,61.11
2023-02-17T16:12:26.542Z,61.88
2023-02-17T16:14:54.829Z,63.51
2023-02-17T16:17:21.817Z,64.45
2023-02-17T16:19:48.870Z,64.59
2023-02-17T16:22:15.803Z,64.37
2023-02-17T16:24:43.054Z,63.92
2023-02-17T16:27:15.544Z,64.55
2023-02-17T16:29:43.049Z,65.24
2023-02-17T16:32:12.892Z,65.45
2023-02-17T16:34:40.441Z,66.26
2023-02-17T16:37:17.562Z,65.48
2023-02-17T16:39:45.131Z,66.15
2023-02-17T16:42:15.823Z,66.17
2023-02-17T16:44:43.132Z,66.15
2023-02-17T16:47:20.071Z,65.13
2023-02-17T16:49:48.251Z,65.39
2023-02-17T16:52:24.211Z,64.78
2023-02-17T16:54:51.358Z,64.18
2023-02-17T16:57:20.052Z,63.78
2023-02-17T16:59:47.657Z,63.43
2023-02-17T17:02:14.916Z,63.73
2023-02-17T17:04:41.850Z,63.88
2023-02-17T17:07:14.028Z,64.93
2023-02-17T17:09:41.839Z,64.55
2023-02-17T17:12:11.054Z,63.99
2023-02-17T17:14:37.943Z,63.53
2023-02-17T17:17:05.116Z,64.26
2023-02-17T17:19:32.017Z,64.43
2023-02-17T17:21:58.981Z,63.80
2023-02-17T17:24:26.272Z,63.68
2023-02-17T17:26:53.362Z,64.76
2023-02-17T17:29:20.857Z,66.02
2023-02-17T17:31:48.398Z,66.65
2023-02-17T17:34:15.467Z,66.90
2023-02-17T17:36:45.151Z,67.51
2023-02-17T17:39:18.469Z,68.21
2023-02-17T17:41:46.231Z,66.99
2023-02-17T17:44:13.269Z,67.35
2023-02-17T17:46:41.188Z,66.63
2023-02-17T17:49:10.560Z,65.31
2023-02-17T17:51:38.620Z,64.46
2023-02-17T17:54:06.844Z,63.56
2023-02-17T17:56:39.441Z,63.72
2023-02-17T17:59:06.922Z,63.14
2023-02-17T18:01:34.290Z,63.04
2023-02-17T18:04:01.675Z,63.17
2023-02-17T18:06:36.418Z,62.88
2023-02-17T18:09:07.167Z,62.36
2023-02-17T18:11:35.618Z,61.67
2023-02-17T18:14:07.666Z,60.12
2023-02-17T18:16:36.572Z,58.84
2023-02-17T18:19:06.940Z,58.47
2023-02-17T18:21:35.796Z,57.99
2023-02-17T18:24:03.643Z,58.87
2023-02-17T18:26:30.974Z,58.89
2023-02-17T18:28:59.116Z,58.97
2023-02-17T18:31:28.640Z,58.44
2023-02-17T18:33:56.378Z,59.08
2023-02-17T18:36:26.849Z,59.87
2023-02-17T18:38:53.963Z,60.47
2023-02-17T18:41:33.063Z,62.00
2023-02-17T18:44:01.923Z,61.65
2023-02-17T18:46:29.606Z,61.85
2023-02-17T18:48:57.368Z,61.63
2023-02-17T18:51:27.815Z,60.37
2023-02-17T18:53:59.859Z,60.71
2023-02-17T18:56:30.115Z,60.27
2023-02-17T18:58:57.624Z,61.00
2023-02-17T19:01:30.504Z,60.66
2023-02-17T19:03:58.131Z,60.99
2023-02-17T19:06:29.393Z,59.91
2023-02-17T19:08:56.537Z,59.28
2023-02-17T19:11:24.962Z,57.19
2023-02-17T19:13:53.203Z,56.14
2023-02-17T19:16:26.113Z,55.22
2023-02-17T19:18:53.183Z,54.29
2023-02-17T19:21:21.412Z,54.28
2023-02-17T19:23:48.804Z,53.73
2023-02-17T19:26:17.657Z,54.31
2023-02-17T19:28:45.422Z,54.25
2023-02-17T19:31:15.880Z,54.13
2023-02-17T19:33:44.455Z,54.92
2023-02-17T19:36:15.162Z,55.34
2023-02-17T19:38:42.701Z,56.37
2023-02-17T19:41:11.474Z,56.42
2023-02-17T19:43:38.813Z,56.28
2023-02-17T19:46:06.342Z,56.91
2023-02-17T19:48:36.365Z,56.58
2023-02-17T19:51:06.226Z,57.16
2023-02-17T19:53:34.272Z,58.58
2023-02-17T19:56:22.197Z,59.79
2023-02-17T19:58:50.414Z,59.80
2023-02-17T20:01:21.721Z,59.51
2023-02-17T20:03:48.823Z,58.57
2023-02-17T20:06:19.677Z,58.81
2023-02-17T20:08:46.883Z,58.94
2023-02-17T20:11:14.994Z,60.25
2023-02-17T20:13:46.090Z,61.70
2023-02-17T20:16:15.348Z,63.35
2023-02-17T20:18:45.492Z,63.19
2023-02-17T20:21:15.881Z,61.76
2023-02-17T20:23:43.327Z,60.50
2023-02-17T20:26:14.732Z,59.98
2023-02-17T20:28:41.934Z,60.42
2023-02-17T20:31:10.092Z,60.98
2023-02-17T20:33:37.589Z,61.45
2023-02-17T20:36:06.972Z,62.24
2023-02-17T20:38:34.713Z,62.52
2023-02-17T20:41:01.809Z,63.41
2023-02-17T20:43:28.889Z,64.70
2023-02-17T20:45:55.869Z,65.86
2023-02-17T20:48:27.559Z,65.06
2023-02-17T20:54:45.365Z,63.97
2023-02-17T20:57:15.791Z,64.20
2023-02-17T20:59:42.724Z,63.69
2023-02-17T21:02:11.377Z,63.50
2023-02-17T21:04:38.436Z,63.52
2023-02-17T21:07:05.581Z,63.86
2023-02-17T21:09:32.469Z,62.18
2023-02-17T21:11:59.465Z,62.66
2023-02-17T21:14:26.445Z,62.75
2023-02-17T21:16:53.547Z,63.94
2023-02-17T21:19:20.640Z,64.12
2023-02-17T21:21:50.543Z,63.73
2023-02-17T21:24:17.505Z,64.05
2023-02-17T21:26:44.495Z,64.67
2023-02-17T21:29:11.416Z,65.80
2023-02-17T21:31:38.635Z,65.71
2023-02-17T21:34:06.007Z,65.57
2023-02-17T21:36:36.110Z,65.54
2023-02-17T21:39:04.356Z,65.27
2023-02-17T21:41:32.650Z,65.70
2023-02-17T21:44:18.514Z,64.53
2023-02-17T21:46:46.593Z,63.92
2023-02-17T21:49:14.325Z,64.34
2023-02-17T21:51:41.938Z,63.40
2023-02-17T21:54:09.787Z,63.00
2023-02-17T21:56:36.889Z,63.65
2023-02-17T21:59:04.193Z,62.98
2023-02-17T22:01:31.228Z,62.37
2023-02-17T22:03:58.254Z,62.67
2023-02-17T22:06:28.451Z,62.44
2023-02-17T22:08:56.488Z,61.33
2023-02-17T22:11:26.045Z,61.20
2023-02-17T22:14:01.917Z,61.65
2023-02-17T22:16:34.379Z,61.04
2023-02-17T22:19:02.148Z,61.55
2023-02-17T22:21:29.335Z,60.95
2023-02-17T22:23:58.479Z,60.24
2023-02-17T22:26:26.371Z,60.70
2023-02-17T22:28:53.878Z,61.42
2023-02-17T22:31:26.587Z,60.71
2023-02-17T22:33:55.875Z,60.80
2023-02-17T22:36:24.481Z,60.37
2023-02-17T22:38:52.511Z,61.34
2023-02-17T22:41:21.757Z,61.47
2023-02-17T22:43:49.820Z,61.78
2023-02-17T22:46:49.157Z,60.64
2023-02-17T22:49:16.165Z,60.50
2023-02-17T22:51:43.205Z,60.50
2023-02-17T22:54:10.253Z,59.95
2023-02-17T22:56:37.704Z,60.24
2023-02-17T22:59:05.818Z,60.62
2023-02-17T23:01:35.636Z,60.01
2023-02-17T23:04:03.678Z,59.54
2023-02-17T23:06:33.558Z,59.50
2023-02-17T23:09:01.747Z,59.77
2023-02-17T23:11:50.138Z,58.91
2023-02-17T23:14:26.104Z,59.21
2023-02-17T23:16:55.425Z,58.63
2023-02-17T23:19:24.182Z,59.03
2023-02-17T23:21:54.233Z,57.72
2023-02-17T23:24:22.345Z,56.84
2023-02-17T23:26:49.659Z,57.13
2023-02-17T23:29:17.666Z,57.18
2023-02-17T23:31:44.994Z,56.52
2023-02-17T23:34:14.363Z,56.94
2023-02-17T23:36:43.279Z,55.97
2023-02-17T23:39:10.763Z,56.28
2023-02-17T23:41:39.524Z,57.72
2023-02-17T23:44:09.543Z,56.74
2023-02-17T23:46:37.294Z,56.44
2023-02-17T23:49:04.354Z,56.95
2023-02-17T23:51:31.241Z,56.26
2023-02-17T23:53:58.158Z,55.86
2023-02-17T23:56:30.709Z,55.42
2023-02-17T23:58:57.698Z,56.05
